Time;durP1;ratioP1;P1;durP2;ratioP2;P2;SDS_P1;SDS_P2;PMS_P1;PMS_P2;Temp;Humidity;BMP_temperature;BMP_pressure;BME280_temperature;BME280_humidity;BME280_pressure;Samples;Min_cycle;Max_cycle;Signal;HPM_P1;HPM_P2
2021/05/26 00:01:59;;;;;;;1.33;0.57;;;11.70;86.30;;;;;;5040101;28;20117;-90
2021/05/26 00:04:27;;;;;;;2.45;0.50;;;11.70;87.00;;;;;;5010239;28;20305;-90
2021/05/26 00:07:20;;;;;;;0.73;0.43;;;11.60;87.00;;;;;;5008332;28;20351;-90
2021/05/26 00:09:51;;;;;;;2.80;0.50;;;11.60;87.30;;;;;;5006016;28;20033;-92
2021/05/26 00:12:32;;;;;;;2.15;0.63;;;11.60;87.30;;;;;;5002708;28;20892;-93
2021/05/26 00:14:58;;;;;;;1.38;0.50;;;11.70;87.10;;;;;;5011447;28;20082;-92
2021/05/26 00:21:30;;;;;;;3.45;1.42;;;11.70;86.80;;;;;;5010786;28;20057;-94
2021/05/26 00:23:56;;;;;;;1.15;0.50;;;11.70;86.90;;;;;;4999589;28;20037;-93
2021/05/26 00:26:48;;;;;;;0.75;0.50;;;11.60;87.10;;;;;;5013967;28;20068;-94
2021/05/26 00:33:32;;;;;;;3.00;0.57;;;11.60;87.00;;;;;;5006041;28;20032;-93
2021/05/26 00:36:30;;;;;;;1.75;0.75;;;11.60;87.50;;;;;;5005381;28;20038;-90
2021/05/26 00:39:48;;;;;;;0.98;0.50;;;11.60;87.30;;;;;;5020402;28;20045;-92
2021/05/26 00:55:47;;;;;;;2.38;0.40;;;11.50;87.90;;;;;;4911693;29;20297;-91
2021/05/26 01:01:43;;;;;;;1.30;0.65;;;11.40;88.20;;;;;;4905746;29;20100;-93
2021/05/26 01:04:14;;;;;;;0.52;0.40;;;11.40;88.10;;;;;;4912941;29;20068;-92
2021/05/26 01:07:00;;;;;;;0.65;0.65;;;11.40;88.30;;;;;;4920033;29;20083;-90
2021/05/26 01:19:53;;;;;;;2.88;0.50;;;11.40;88.90;;;;;;4987175;28;20493;-92
2021/05/26 01:26:21;;;;;;;1.60;0.40;;;11.40;88.50;;;;;;4983948;28;20101;-93
2021/05/26 01:28:56;;;;;;;4.50;0.65;;;11.40;88.40;;;;;;5018729;28;20417;-92
2021/05/26 01:31:56;;;;;;;3.45;0.82;;;11.40;88.90;;;;;;5018059;28;20038;-94
2021/05/26 01:34:54;;;;;;;2.47;0.50;;;11.40;88.70;;;;;;5000555;28;20038;-93
2021/05/26 01:37:26;;;;;;;1.83;0.60;;;11.50;88.60;;;;;;5009856;28;20029;-91
2021/05/26 01:39:58;;;;;;;1.20;0.52;;;11.40;88.10;;;;;;5030149;28;20050;-90
2021/05/26 01:42:53;;;;;;;2.33;0.40;;;11.30;88.40;;;;;;5011643;28;20069;-93
2021/05/26 01:55:33;;;;;;;3.50;0.98;;;11.30;88.60;;;;;;4999053;28;20072;-93
2021/05/26 01:58:20;;;;;;;1.58;0.65;;;11.40;89.20;;;;;;4993827;28;20050;-94
2021/05/26 02:01:22;;;;;;;2.10;0.90;;;11.30;89.00;;;;;;4979389;28;20058;-93
2021/05/26 02:07:18;;;;;;;3.47;0.60;;;11.30;88.70;;;;;;5005175;28;20664;-92
2021/05/26 02:09:53;;;;;;;1.63;0.93;;;11.40;88.80;;;;;;5017240;28;20038;-92
2021/05/26 02:12:32;;;;;;;2.45;0.60;;;11.30;88.50;;;;;;5005873;28;20094;-93
2021/05/26 02:18:19;;;;;;;1.40;0.63;;;11.30;88.90;;;;;;5018766;28;20037;-91
2021/05/26 02:20:50;;;;;;;3.58;0.70;;;11.30;88.90;;;;;;5021018;28;20054;-92
2021/05/26 02:26:47;;;;;;;3.03;1.40;;;11.30;89.00;;;;;;5008338;28;20042;-92
2021/05/26 02:29:19;;;;;;;3.05;0.65;;;11.30;89.40;;;;;;5010019;28;20034;-91
2021/05/26 02:35:00;;;;;;;1.58;0.70;;;11.40;88.80;;;;;;5002546;28;20044;-91
2021/05/26 02:40:51;;;;;;;2.03;0.57;;;11.30;89.30;;;;;;4954274;28;20071;-92
2021/05/26 02:43:17;;;;;;;1.05;0.57;;;11.30;89.10;;;;;;5014393;28;20061;-89
2021/05/26 02:45:58;;;;;;;1.25;0.80;;;11.20;89.20;;;;;;5014604;28;20033;-91
2021/05/26 02:48:24;;;;;;;4.93;0.73;;;11.20;89.30;;;;;;5025443;28;20058;-89
2021/05/26 02:50:58;;;;;;;1.58;0.60;;;11.10;89.60;;;;;;5000338;28;20038;-90
2021/05/26 02:53:26;;;;;;;2.92;1.15;;;11.10;89.70;;;;;;5009153;28;20048;-90
2021/05/26 02:56:13;;;;;;;1.45;0.90;;;11.10;89.60;;;;;;5018592;28;20106;-90
2021/05/26 02:59:16;;;;;;;1.30;0.57;;;11.10;90.10;;;;;;5016980;28;20077;-91
2021/05/26 03:01:47;;;;;;;3.28;0.80;;;11.10;90.10;;;;;;5011841;28;20050;-92
2021/05/26 03:07:17;;;;;;;;;;;11.10;90.10;;;;;;5016999;28;20169;-91
2021/05/26 03:10:23;;;;;;;2.22;0.90;;;11.10;90.00;;;;;;5038594;28;19921;-92
2021/05/26 03:12:52;;;;;;;3.65;0.98;;;11.10;90.00;;;;;;5019800;28;20070;-91
2021/05/26 03:15:40;;;;;;;2.53;0.70;;;11.00;90.00;;;;;;5009816;28;20038;-94
2021/05/26 03:18:06;;;;;;;2.50;0.70;;;11.00;90.00;;;;;;5000035;28;20034;-90
2021/05/26 03:21:21;;;;;;;;;;;;;;;;;;;;;
2021/05/26 03:23:53;;;;;;;1.25;0.60;;;11.10;90.00;;;;;;5010592;28;20117;-91
2021/05/26 03:26:21;;;;;;;2.75;0.52;;;11.10;89.90;;;;;;5010898;28;20041;-91
2021/05/26 03:28:50;;;;;;;0.90;0.50;;;11.10;89.90;;;;;;5021872;28;20034;-92
2021/05/26 03:31:26;;;;;;;2.30;0.60;;;11.20;89.80;;;;;;5010377;28;20049;-92
2021/05/26 03:33:52;;;;;;;1.98;0.95;;;11.20;89.90;;;;;;5016501;28;20043;-91
2021/05/26 03:36:20;;;;;;;4.20;0.80;;;11.30;89.60;;;;;;4999164;28;20043;-91
2021/05/26 03:38:55;;;;;;;5.45;0.80;;;11.30;89.40;;;;;;5009200;28;20038;-93
2021/05/26 03:42:05;;;;;;;2.42;0.60;;;11.40;89.00;;;;;;5017624;28;20088;-91
2021/05/26 03:44:31;;;;;;;3.47;0.73;;;11.40;88.90;;;;;;5019682;28;20074;-90
2021/05/26 03:47:06;;;;;;;2.35;0.82;;;11.30;89.70;;;;;;5015479;28;20098;-93
2021/05/26 03:49:34;;;;;;;2.65;0.57;;;11.40;88.90;;;;;;5014770;28;20034;-91
2021/05/26 03:52:27;;;;;;;1.05;0.70;;;11.40;88.80;;;;;;5010741;28;20046;-92
2021/05/26 03:55:10;;;;;;;1.70;0.73;;;11.40;89.00;;;;;;5017697;28;20022;-91
2021/05/26 03:57:37;;;;;;;3.30;0.68;;;11.40;89.00;;;;;;5038369;28;20042;-92
2021/05/26 04:00:11;;;;;;;1.77;1.35;;;11.40;89.00;;;;;;5022318;28;20545;-91
2021/05/26 04:02:40;;;;;;;1.83;0.70;;;11.40;88.70;;;;;;5011371;28;20053;-90
2021/05/26 04:05:06;;;;;;;3.67;0.90;;;11.50;89.00;;;;;;5033215;28;20037;-92
2021/05/26 04:07:56;;;;;;;2.80;0.65;;;11.50;88.60;;;;;;5011179;28;20034;-91
2021/05/26 04:10:31;;;;;;;1.73;0.80;;;11.50;88.90;;;;;;5006375;28;20061;-91
2021/05/26 04:13:07;;;;;;;1.33;0.57;;;11.60;88.60;;;;;;5009392;28;20131;-93
2021/05/26 04:15:43;;;;;;;;;;;;;;;;;;;;;
2021/05/26 04:18:36;;;;;;;1.52;0.63;;;11.70;88.00;;;;;;5006735;28;20036;-91
2021/05/26 04:21:31;;;;;;;1.88;0.70;;;11.70;87.70;;;;;;5022811;28;20042;-93
2021/05/26 04:24:03;;;;;;;6.03;1.08;;;11.70;88.30;;;;;;5018632;28;20038;-90
2021/05/26 04:29:19;;;;;;;2.80;0.57;;;11.70;88.30;;;;;;5023757;28;20026;-91
2021/05/26 04:32:04;;;;;;;1.67;0.60;;;11.70;87.50;;;;;;5025713;28;20060;-91
2021/05/26 04:34:42;;;;;;;1.52;0.88;;;11.80;87.80;;;;;;5007849;28;20121;-89
2021/05/26 04:37:37;;;;;;;1.35;0.60;;;11.70;87.10;;;;;;5037790;28;20042;-90
2021/05/26 04:40:04;;;;;;;1.35;0.70;;;11.70;87.00;;;;;;5025984;28;20621;-89
2021/05/26 04:42:30;;;;;;;3.47;0.60;;;11.80;87.90;;;;;;5018294;28;20100;-92
2021/05/26 04:44:58;;;;;;;4.32;1.02;;;11.80;87.80;;;;;;5013666;28;20037;-91
2021/05/26 04:47:23;;;;;;;1.77;1.02;;;11.80;87.70;;;;;;5011869;28;20045;-90
2021/05/26 04:49:51;;;;;;;2.97;1.83;;;11.80;87.40;;;;;;5008133;28;20041;-91
2021/05/26 04:52:17;;;;;;;2.00;0.85;;;11.80;87.50;;;;;;5029974;28;20098;-91
2021/05/26 04:54:43;;;;;;;4.75;0.85;;;11.90;87.50;;;;;;5027691;28;20049;-89
2021/05/26 04:57:08;;;;;;;2.10;0.90;;;11.90;86.70;;;;;;5016321;28;20038;-88
2021/05/26 04:59:34;;;;;;;1.40;0.80;;;12.00;87.60;;;;;;5002927;28;20121;-89
2021/05/26 05:02:01;;;;;;;1.50;0.80;;;12.00;87.30;;;;;;5002327;28;20057;-91
2021/05/26 05:04:26;;;;;;;1.80;0.90;;;12.00;87.40;;;;;;5001925;28;20050;-90
2021/05/26 05:06:53;;;;;;;3.17;0.80;;;12.10;87.60;;;;;;5003542;28;20035;-90
2021/05/26 05:09:22;;;;;;;3.15;1.17;;;12.20;87.90;;;;;;5011468;28;20081;-92
2021/05/26 05:11:47;;;;;;;1.20;0.80;;;12.30;86.30;;;;;;5018511;28;20038;-89
2021/05/26 05:14:13;;;;;;;3.38;0.70;;;12.40;86.60;;;;;;5006375;28;20416;-91
2021/05/26 05:16:38;;;;;;;2.65;0.85;;;12.50;85.60;;;;;;5020930;28;20042;-89
2021/05/26 05:19:04;;;;;;;4.03;0.80;;;12.50;85.90;;;;;;5021545;28;20042;-89
2021/05/26 05:21:31;;;;;;;2.13;0.73;;;12.50;85.60;;;;;;5024221;28;20283;-89
2021/05/26 05:23:56;;;;;;;2.58;0.82;;;12.50;85.60;;;;;;5021144;28;20038;-90
2021/05/26 05:26:22;;;;;;;1.65;0.80;;;12.60;84.60;;;;;;5029024;28;20057;-89
2021/05/26 05:28:48;;;;;;;4.72;1.10;;;12.60;85.20;;;;;;5034686;28;20049;-89
2021/05/26 05:31:14;;;;;;;1.20;0.65;;;12.60;85.40;;;;;;5022680;28;20053;-91
2021/05/26 05:33:40;;;;;;;4.15;0.80;;;12.60;84.20;;;;;;5021011;28;20042;-90
2021/05/26 05:36:05;;;;;;;1.98;0.60;;;12.60;85.30;;;;;;5025070;28;20048;-88
2021/05/26 05:38:31;;;;;;;3.17;0.90;;;12.60;84.00;;;;;;5032387;28;20038;-90
2021/05/26 05:40:57;;;;;;;2.50;0.80;;;12.70;84.10;;;;;;5022989;28;20080;-88
2021/05/26 05:43:23;;;;;;;4.20;0.50;;;12.70;84.50;;;;;;5016308;28;20074;-88
2021/05/26 05:45:55;;;;;;;6.45;1.48;;;12.80;84.90;;;;;;5003684;28;20037;-90
2021/05/26 05:48:21;;;;;;;2.15;1.05;;;12.80;84.00;;;;;;5019229;28;20038;-89
2021/05/26 05:50:46;;;;;;;1.80;0.60;;;12.70;84.10;;;;;;5019572;28;20125;-89
2021/05/26 05:53:13;;;;;;;3.97;0.80;;;12.80;85.50;;;;;;5019078;28;20033;-87
2021/05/26 05:55:39;;;;;;;1.67;0.82;;;12.80;84.50;;;;;;5018895;28;20046;-91
2021/05/26 05:58:11;;;;;;;1.42;0.77;;;12.90;84.30;;;;;;5017659;28;20108;-88
2021/05/26 06:00:38;;;;;;;3.78;0.73;;;13.00;84.60;;;;;;5016583;28;20115;-89
2021/05/26 06:03:04;;;;;;;2.90;1.08;;;13.00;83.70;;;;;;5026376;28;20094;-90
2021/05/26 06:05:33;;;;;;;4.90;0.70;;;13.10;83.60;;;;;;5010857;28;20299;-89
2021/05/26 06:07:59;;;;;;;1.65;0.90;;;13.10;82.90;;;;;;5008095;28;20061;-89
2021/05/26 06:10:24;;;;;;;6.97;1.02;;;13.10;82.90;;;;;;5017690;28;20096;-90
2021/05/26 06:12:53;;;;;;;4.15;0.50;;;13.00;83.60;;;;;;5034449;28;20378;-89
2021/05/26 06:15:19;;;;;;;1.63;0.65;;;13.00;82.70;;;;;;5018966;28;20119;-88
2021/05/26 06:17:44;;;;;;;2.53;0.70;;;13.10;83.00;;;;;;5014319;28;20066;-90
2021/05/26 06:20:10;;;;;;;4.65;0.80;;;13.10;82.30;;;;;;5013000;28;20042;-89
2021/05/26 06:22:36;;;;;;;2.25;0.45;;;13.20;82.80;;;;;;5018174;28;20045;-88
2021/05/26 06:25:02;;;;;;;0.77;0.43;;;13.20;82.50;;;;;;5019482;28;20454;-88
2021/05/26 06:27:27;;;;;;;3.75;0.80;;;13.20;83.10;;;;;;5026743;28;20097;-89
2021/05/26 06:29:53;;;;;;;6.30;0.77;;;13.20;82.20;;;;;;5017111;28;20042;-87
2021/05/26 06:32:18;;;;;;;1.75;0.68;;;13.20;82.20;;;;;;4999148;28;20041;-88
2021/05/26 06:34:44;;;;;;;3.08;0.60;;;13.30;82.60;;;;;;5011299;28;20038;-90
2021/05/26 06:37:37;;;;;;;2.60;0.68;;;13.40;83.70;;;;;;5000348;28;20049;-89
2021/05/26 06:40:05;;;;;;;2.25;0.60;;;13.60;82.70;;;;;;5032034;28;20050;-89
2021/05/26 06:42:31;;;;;;;2.33;0.70;;;13.80;82.50;;;;;;5016108;28;20136;-88
2021/05/26 06:44:56;;;;;;;11.48;0.95;;;13.90;79.90;;;;;;5017167;28;20139;-88
2021/05/26 06:47:32;;;;;;;3.92;1.25;;;14.00;80.20;;;;;;5017207;28;20033;-89
2021/05/26 06:49:58;;;;;;;2.08;1.13;;;14.10;79.90;;;;;;5017501;28;20361;-87
2021/05/26 06:52:24;;;;;;;1.90;0.60;;;14.20;79.00;;;;;;5017307;28;20072;-91
2021/05/26 06:54:49;;;;;;;3.85;0.70;;;14.30;79.30;;;;;;5017652;28;20382;-89
2021/05/26 06:57:17;;;;;;;3.30;0.82;;;14.50;80.00;;;;;;5017188;28;20046;-89
2021/05/26 06:59:43;;;;;;;4.55;1.40;;;14.50;78.90;;;;;;5012770;28;20042;-88
2021/05/26 07:02:08;;;;;;;2.03;0.70;;;14.60;78.20;;;;;;4997973;28;20050;-90
2021/05/26 07:04:34;;;;;;;3.55;0.60;;;14.70;79.10;;;;;;5009057;28;20038;-87
2021/05/26 07:07:00;;;;;;;6.18;1.05;;;14.80;78.80;;;;;;5013470;28;20116;-89
2021/05/26 07:09:26;;;;;;;2.58;0.40;;;14.80;77.50;;;;;;5003499;28;20046;-87
2021/05/26 07:11:52;;;;;;;1.95;0.47;;;15.00;77.10;;;;;;4999412;28;20428;-88
2021/05/26 07:14:18;;;;;;;3.17;0.73;;;15.00;77.40;;;;;;5002056;28;20092;-87
2021/05/26 07:16:43;;;;;;;1.55;0.50;;;15.00;77.20;;;;;;5027369;28;20027;-90
2021/05/26 07:19:09;;;;;;;4.68;0.95;;;15.00;76.10;;;;;;5023384;28;20514;-89
2021/05/26 07:21:34;;;;;;;3.40;0.63;;;15.00;76.30;;;;;;5012755;28;20138;-86
2021/05/26 07:24:00;;;;;;;7.97;0.93;;;15.00;76.30;;;;;;5010614;28;20422;-87
2021/05/26 07:26:26;;;;;;;4.95;0.70;;;14.90;76.80;;;;;;4996232;28;20148;-87
2021/05/26 07:28:51;;;;;;;5.78;0.90;;;14.90;76.50;;;;;;5023046;28;20282;-86
2021/05/26 07:31:17;;;;;;;1.45;0.77;;;14.80;75.90;;;;;;5015679;28;20072;-86
2021/05/26 07:33:43;;;;;;;3.47;1.20;;;14.80;76.60;;;;;;5015256;28;20038;-87
2021/05/26 07:36:09;;;;;;;3.35;1.25;;;14.70;76.80;;;;;;5012413;28;20359;-87
2021/05/26 07:38:34;;;;;;;10.68;1.55;;;14.80;76.80;;;;;;5005090;28;20116;-87
2021/05/26 07:41:00;;;;;;;5.03;1.60;;;14.80;77.50;;;;;;5013000;28;20046;-86
2021/05/26 07:43:27;;;;;;;1.75;0.60;;;14.90;77.10;;;;;;5000697;28;20115;-87
2021/05/26 07:45:53;;;;;;;1.77;0.63;;;14.90;76.60;;;;;;5014991;28;20041;-88
2021/05/26 07:48:18;;;;;;;1.95;0.60;;;14.80;76.50;;;;;;5015050;28;20046;-88
2021/05/26 07:50:45;;;;;;;2.17;1.02;;;14.70;77.10;;;;;;5016082;28;20045;-88
2021/05/26 07:53:10;;;;;;;2.67;1.08;;;14.60;78.80;;;;;;5015141;28;20049;-87
2021/05/26 07:55:36;;;;;;;2.55;0.88;;;14.70;77.50;;;;;;5015388;28;20049;-88
2021/05/26 07:58:02;;;;;;;1.88;0.60;;;14.60;78.10;;;;;;5013822;28;20611;-86
2021/05/26 08:00:27;;;;;;;2.20;0.82;;;14.50;77.20;;;;;;5016565;28;20052;-88
2021/05/26 08:02:53;;;;;;;3.28;0.90;;;14.50;78.80;;;;;;5029923;28;20042;-88
2021/05/26 08:05:21;;;;;;;3.13;0.70;;;14.60;80.60;;;;;;5022495;28;20393;-89
2021/05/26 08:07:46;;;;;;;2.72;0.73;;;14.60;78.60;;;;;;5032255;28;20407;-88
2021/05/26 08:10:13;;;;;;;3.58;0.93;;;14.60;80.00;;;;;;5033896;28;20038;-87
2021/05/26 08:12:39;;;;;;;5.88;1.58;;;14.70;78.60;;;;;;5032861;28;20088;-88
2021/05/26 08:15:06;;;;;;;1.55;0.95;;;14.70;79.50;;;;;;5020296;28;20251;-86
2021/05/26 08:17:32;;;;;;;2.35;0.52;;;14.70;78.80;;;;;;5016740;28;20085;-88
2021/05/26 08:20:01;;;;;;;2.00;0.60;;;14.60;80.30;;;;;;5007109;28;20034;-86
2021/05/26 08:22:27;;;;;;;4.13;1.00;;;14.60;79.90;;;;;;5007417;28;20034;-86
2021/05/26 08:24:52;;;;;;;1.65;0.65;;;14.60;80.00;;;;;;5015676;28;20034;-88
2021/05/26 08:27:18;;;;;;;3.83;1.05;;;14.60;80.50;;;;;;4999243;28;20401;-88
2021/05/26 08:29:43;;;;;;;4.22;1.23;;;14.60;80.00;;;;;;5017669;28;20045;-86
2021/05/26 08:32:09;;;;;;;4.20;1.10;;;14.60;80.20;;;;;;5023253;28;20042;-87
2021/05/26 08:34:34;;;;;;;3.65;1.20;;;14.60;79.80;;;;;;5005855;28;20184;-86
2021/05/26 08:37:00;;;;;;;5.88;0.80;;;14.70;80.40;;;;;;4998599;28;20176;-88
2021/05/26 08:39:25;;;;;;;4.95;0.82;;;14.70;79.10;;;;;;4998995;28;20121;-86
2021/05/26 08:41:54;;;;;;;3.25;0.98;;;14.70;78.70;;;;;;5013100;28;20422;-88
2021/05/26 08:44:20;;;;;;;1.73;0.80;;;14.70;79.70;;;;;;5007187;28;20181;-88
2021/05/26 08:46:52;;;;;;;3.53;1.05;;;14.70;79.60;;;;;;5018364;28;20088;-86
2021/05/26 08:49:18;;;;;;;3.40;1.08;;;14.60;80.00;;;;;;5018676;28;20088;-88
2021/05/26 08:51:44;;;;;;;1.55;1.23;;;14.60;80.80;;;;;;5018735;28;20110;-88
2021/05/26 08:54:10;;;;;;;1.77;0.70;;;14.60;81.20;;;;;;5019776;28;20452;-88
2021/05/26 08:56:36;;;;;;;2.72;1.13;;;14.50;82.20;;;;;;5021975;28;20042;-88
2021/05/26 08:59:01;;;;;;;1.67;1.00;;;14.40;83.20;;;;;;5027326;28;20069;-87
2021/05/26 09:01:27;;;;;;;5.35;1.63;;;14.40;83.30;;;;;;5018377;28;20049;-87
2021/05/26 09:03:54;;;;;;;6.20;0.60;;;14.30;84.30;;;;;;5009617;28;20160;-86
2021/05/26 09:06:20;;;;;;;3.03;0.88;;;14.40;86.10;;;;;;5002586;28;20056;-88
2021/05/26 09:08:49;;;;;;;2.83;0.98;;;14.40;86.10;;;;;;5006768;28;20038;-86
2021/05/26 09:11:15;;;;;;;1.30;0.65;;;14.50;85.50;;;;;;5007119;28;20066;-87
2021/05/26 09:13:43;;;;;;;2.65;1.00;;;14.50;87.30;;;;;;5013310;28;20041;-86
2021/05/26 09:16:24;;;;;;;3.70;0.90;;;14.60;86.00;;;;;;5010318;28;20037;-85
2021/05/26 09:18:58;;;;;;;3.03;1.20;;;14.60;87.10;;;;;;5016876;28;20037;-87
2021/05/26 09:21:36;;;;;;;1.75;1.10;;;14.60;86.10;;;;;;5024652;28;20046;-86
2021/05/26 09:24:22;;;;;;;5.15;2.05;;;14.70;88.00;;;;;;5022182;28;20034;-85
2021/05/26 09:26:52;;;;;;;2.08;0.80;;;14.70;85.90;;;;;;5015293;28;20038;-86
2021/05/26 09:29:31;;;;;;;6.30;1.23;;;14.60;89.20;;;;;;5031917;28;20465;-86
2021/05/26 09:32:30;;;;;;;2.67;0.93;;;14.70;89.60;;;;;;5015851;28;20041;-86
2021/05/26 09:34:59;;;;;;;2.50;1.00;;;14.90;89.60;;;;;;5015249;28;20133;-85
2021/05/26 09:37:27;;;;;;;4.80;1.00;;;15.00;88.40;;;;;;5015226;28;20313;-86
2021/05/26 09:40:20;;;;;;;10.10;1.35;;;15.10;89.30;;;;;;5014525;28;20107;-85
2021/05/26 09:42:46;;;;;;;3.10;1.10;;;15.20;88.40;;;;;;5014977;28;20080;-86
2021/05/26 09:45:27;;;;;;;0.95;0.63;;;15.40;88.70;;;;;;5015293;28;20034;-86
2021/05/26 09:47:54;;;;;;;2.35;0.75;;;15.30;87.10;;;;;;5020243;28;20065;-85
2021/05/26 09:50:30;;;;;;;2.35;0.90;;;15.30;86.90;;;;;;5017308;28;20607;-86
2021/05/26 09:53:24;;;;;;;2.33;1.10;;;15.30;86.40;;;;;;5016279;28;20449;-85
2021/05/26 09:55:50;;;;;;;4.22;0.90;;;15.20;87.20;;;;;;5017060;28;20041;-85
2021/05/26 09:58:17;;;;;;;2.92;1.17;;;15.20;87.30;;;;;;5023634;28;20659;-86
2021/05/26 10:00:44;;;;;;;2.95;0.80;;;15.20;87.50;;;;;;5016716;28;20697;-85
2021/05/26 10:03:10;;;;;;;6.10;1.08;;;15.20;87.90;;;;;;5014726;28;20400;-86
2021/05/26 10:05:36;;;;;;;3.47;0.90;;;15.20;88.00;;;;;;5016819;28;20033;-87
2021/05/26 10:08:12;;;;;;;2.45;1.02;;;15.10;87.40;;;;;;5017416;28;20038;-86
2021/05/26 10:10:40;;;;;;;2.28;0.70;;;15.10;87.10;;;;;;4943795;28;2458779;-85
2021/05/26 10:13:06;;;;;;;4.53;1.20;;;15.10;88.70;;;;;;5020610;28;20436;-85
2021/05/26 10:15:33;;;;;;;3.42;1.10;;;15.20;89.00;;;;;;5013992;28;20044;-86
2021/05/26 10:18:02;;;;;;;3.25;1.05;;;15.10;86.90;;;;;;5011373;28;20049;-85
2021/05/26 10:20:43;;;;;;;4.10;1.27;;;15.00;87.00;;;;;;5009434;28;20038;-86
2021/05/26 10:23:16;;;;;;;2.65;1.08;;;15.00;87.70;;;;;;5014302;28;20133;-85
2021/05/26 10:25:43;;;;;;;3.08;1.15;;;14.90;87.60;;;;;;5015496;28;20037;-85
2021/05/26 10:28:27;;;;;;;6.53;1.10;;;14.80;88.30;;;;;;5025204;28;20264;-85
2021/05/26 10:30:55;;;;;;;3.03;1.20;;;14.80;90.00;;;;;;5003718;28;20278;-85
2021/05/26 10:33:36;;;;;;;1.13;0.70;;;14.90;90.10;;;;;;5009183;28;20049;-86
2021/05/26 10:36:01;;;;;;;4.28;0.98;;;15.00;88.40;;;;;;4998697;28;20153;-86
2021/05/26 10:38:27;;;;;;;1.92;0.70;;;15.00;89.10;;;;;;4999841;28;20065;-87
2021/05/26 10:40:56;;;;;;;3.72;1.05;;;15.00;88.20;;;;;;5014097;28;20347;-86
2021/05/26 10:43:22;;;;;;;1.63;0.85;;;15.10;89.60;;;;;;5011865;28;20042;-85
2021/05/26 10:45:53;;;;;;;2.42;1.10;;;15.20;88.60;;;;;;4995074;28;20037;-85
2021/05/26 10:48:38;;;;;;;2.60;1.00;;;15.30;90.10;;;;;;5007640;28;20313;-86
2021/05/26 10:51:04;;;;;;;3.60;0.70;;;15.40;88.70;;;;;;5012688;28;20038;-86
2021/05/26 10:53:43;;;;;;;1.90;1.05;;;15.60;89.40;;;;;;5014428;28;20038;-86
2021/05/26 10:56:34;;;;;;;2.53;0.88;;;15.70;86.60;;;;;;5009634;28;20038;-86
2021/05/26 10:59:14;;;;;;;6.30;0.98;;;15.80;88.80;;;;;;5005580;28;20045;-86
2021/05/26 11:02:05;;;;;;;3.05;0.77;;;15.90;88.60;;;;;;5016698;28;20263;-86
2021/05/26 11:04:31;;;;;;;4.05;0.95;;;16.00;86.50;;;;;;5030239;28;20291;-87
2021/05/26 11:07:21;;;;;;;0.93;0.63;;;15.90;86.20;;;;;;5008859;28;20081;-86
2021/05/26 11:09:58;;;;;;;4.22;0.85;;;15.80;83.60;;;;;;5010039;28;20034;-85
2021/05/26 11:12:24;;;;;;;1.00;0.70;;;15.80;85.50;;;;;;5013976;28;20468;-86
2021/05/26 11:14:56;;;;;;;2.83;0.70;;;15.80;87.20;;;;;;5009514;28;20287;-86
2021/05/26 11:17:25;;;;;;;4.00;0.80;;;15.90;87.40;;;;;;5019024;28;20065;-86
2021/05/26 11:20:14;;;;;;;1.38;0.88;;;15.90;87.10;;;;;;5013377;28;20042;-86
2021/05/26 11:22:39;;;;;;;1.63;0.73;;;15.90;86.70;;;;;;5014143;28;20569;-85
2021/05/26 11:25:08;;;;;;;2.72;0.95;;;15.90;86.50;;;;;;5008723;28;20038;-86
2021/05/26 11:27:33;;;;;;;2.25;0.70;;;16.00;86.60;;;;;;5003230;28;20084;-86
2021/05/26 11:30:03;;;;;;;2.13;0.77;;;16.00;87.70;;;;;;5016318;28;20066;-86
2021/05/26 11:32:29;;;;;;;5.07;1.02;;;16.00;87.00;;;;;;5007307;28;20076;-86
2021/05/26 11:35:00;;;;;;;1.50;0.65;;;15.90;87.60;;;;;;5009086;28;20057;-85
2021/05/26 11:37:31;;;;;;;0.90;0.70;;;16.00;85.40;;;;;;5011480;28;20037;-86
2021/05/26 11:39:58;;;;;;;2.15;0.60;;;15.80;86.70;;;;;;4995948;28;20045;-87
2021/05/26 11:42:29;;;;;;;1.02;0.60;;;15.70;86.80;;;;;;4996275;28;20042;-86
2021/05/26 11:45:06;;;;;;;1.73;0.90;;;15.50;87.40;;;;;;5026223;28;20018;-86
2021/05/26 11:47:35;;;;;;;2.70;0.90;;;15.20;88.30;;;;;;5027363;28;20045;-85
2021/05/26 11:50:03;;;;;;;2.22;0.70;;;15.10;90.10;;;;;;5029399;28;20045;-86
2021/05/26 11:52:28;;;;;;;5.28;1.27;;;15.00;90.20;;;;;;5014695;28;20038;-86
2021/05/26 11:54:59;;;;;;;2.08;0.93;;;15.00;90.30;;;;;;5010818;28;20045;-85
2021/05/26 11:57:32;;;;;;;3.88;1.00;;;14.90;91.10;;;;;;5005222;28;20041;-86
2021/05/26 11:59:58;;;;;;;4.00;0.88;;;14.90;90.60;;;;;;5013736;28;20056;-84
2021/05/26 12:02:24;;;;;;;6.55;0.82;;;14.90;90.60;;;;;;5010328;28;20046;-84
2021/05/26 12:04:49;;;;;;;8.32;1.55;;;15.00;90.20;;;;;;4993395;28;20047;-85
2021/05/26 12:07:23;;;;;;;3.70;0.90;;;15.10;90.20;;;;;;4994391;28;20049;-85
2021/05/26 12:09:57;;;;;;;1.45;0.80;;;15.20;90.70;;;;;;4994199;28;20373;-86
2021/05/26 12:12:23;;;;;;;1.08;0.60;;;15.20;91.10;;;;;;4994454;28;20050;-85
2021/05/26 12:14:50;;;;;;;4.07;1.15;;;15.20;90.80;;;;;;4994772;28;20309;-85
2021/05/26 12:17:17;;;;;;;1.75;0.90;;;15.30;90.80;;;;;;5006840;28;20034;-85
2021/05/26 12:19:44;;;;;;;1.00;0.90;;;15.30;90.60;;;;;;5011525;28;20042;-85
2021/05/26 12:22:14;;;;;;;2.28;0.70;;;15.30;89.60;;;;;;5007156;28;20042;-86
2021/05/26 12:24:55;;;;;;;1.38;0.70;;;15.20;90.00;;;;;;5010077;28;20579;-85
2021/05/26 12:27:45;;;;;;;1.13;0.93;;;15.10;90.10;;;;;;5010469;28;20050;-85
2021/05/26 12:30:22;;;;;;;1.25;0.85;;;15.10;90.40;;;;;;4994718;28;20101;-85
2021/05/26 12:32:49;;;;;;;1.35;0.68;;;15.10;90.70;;;;;;5012654;28;20041;-85
2021/05/26 12:35:19;;;;;;;4.22;0.73;;;15.10;90.70;;;;;;5009929;28;20064;-86
2021/05/26 12:37:48;;;;;;;1.83;0.77;;;15.30;90.90;;;;;;4993542;28;20038;-85
2021/05/26 12:40:36;;;;;;;2.38;0.80;;;15.40;90.40;;;;;;5003180;28;20034;-85
2021/05/26 12:43:04;;;;;;;4.25;0.90;;;15.50;90.20;;;;;;5014723;28;20132;-86
2021/05/26 12:45:31;;;;;;;2.85;0.73;;;15.50;90.10;;;;;;5002519;28;20038;-84
2021/05/26 12:47:59;;;;;;;3.55;0.82;;;15.50;90.40;;;;;;5009302;28;20049;-85
2021/05/26 12:50:28;;;;;;;0.90;0.50;;;15.50;90.40;;;;;;4997275;28;20136;-86
2021/05/26 12:53:09;;;;;;;1.88;0.60;;;15.40;90.60;;;;;;5002656;28;20038;-85
2021/05/26 12:55:35;;;;;;;1.02;0.50;;;15.30;90.20;;;;;;5015020;28;20034;-86
2021/05/26 12:58:06;;;;;;;0.60;0.50;;;15.10;91.10;;;;;;5030483;28;20081;-86
2021/05/26 13:00:32;;;;;;;2.35;0.55;;;15.10;92.50;;;;;;5018684;28;20346;-85
2021/05/26 13:03:14;;;;;;;3.13;0.82;;;15.20;91.70;;;;;;5008013;28;20153;-84
2021/05/26 13:05:47;;;;;;;0.90;0.50;;;15.40;91.40;;;;;;5013904;28;20042;-85
2021/05/26 13:08:22;;;;;;;;;;;15.40;92.50;;;;;;5003857;28;20026;-86
2021/05/26 13:10:56;;;;;;;1.20;0.73;;;15.50;91.20;;;;;;5010781;28;19918;-85
2021/05/26 13:13:28;;;;;;;1.13;0.60;;;15.60;91.80;;;;;;5015210;28;20128;-85
2021/05/26 13:16:10;;;;;;;1.30;0.52;;;15.80;91.00;;;;;;5016242;28;20037;-85
2021/05/26 13:18:37;;;;;;;6.32;0.80;;;16.00;90.30;;;;;;5006491;28;20046;-83
2021/05/26 13:21:03;;;;;;;1.50;0.75;;;16.10;89.70;;;;;;5019585;28;20309;-84
2021/05/26 13:23:29;;;;;;;1.55;0.77;;;16.20;90.00;;;;;;5010849;28;20117;-82
2021/05/26 13:25:55;;;;;;;1.85;0.50;;;16.30;90.90;;;;;;5010509;28;20149;-84
2021/05/26 13:28:21;;;;;;;2.78;0.50;;;16.40;88.00;;;;;;5003517;28;20034;-83
2021/05/26 13:30:48;;;;;;;1.10;0.70;;;16.50;89.10;;;;;;5010923;28;20046;-85
2021/05/26 13:33:15;;;;;;;2.03;1.02;;;16.60;89.70;;;;;;5010609;28;20177;-84
2021/05/26 13:35:42;;;;;;;0.60;0.50;;;16.70;86.50;;;;;;5010419;28;20053;-84
2021/05/26 13:38:10;;;;;;;1.48;0.90;;;16.80;87.00;;;;;;5011797;28;20046;-84
2021/05/26 13:40:38;;;;;;;1.42;1.02;;;16.80;85.80;;;;;;5008964;28;20039;-84
2021/05/26 13:43:04;;;;;;;1.60;0.50;;;16.80;84.30;;;;;;5007695;28;20200;-84
2021/05/26 13:45:31;;;;;;;1.25;0.40;;;16.90;84.60;;;;;;4997553;28;20046;-84
2021/05/26 13:47:57;;;;;;;0.75;0.57;;;17.00;83.70;;;;;;5002771;28;20038;-84
2021/05/26 13:50:24;;;;;;;6.78;1.00;;;16.80;84.50;;;;;;5007389;28;20389;-85
2021/05/26 13:53:00;;;;;;;0.85;0.52;;;16.80;84.20;;;;;;5001134;28;20053;-85
2021/05/26 13:55:27;;;;;;;0.88;0.60;;;16.60;83.40;;;;;;5003532;28;20069;-85
2021/05/26 13:57:53;;;;;;;1.27;0.60;;;16.40;86.30;;;;;;5014435;28;20045;-86
2021/05/26 14:00:27;;;;;;;0.50;0.30;;;16.20;86.00;;;;;;5014478;28;20038;-85
2021/05/26 14:02:53;;;;;;;3.97;0.85;;;16.00;87.30;;;;;;5008453;28;20030;-85
2021/05/26 14:05:20;;;;;;;1.33;0.50;;;15.90;87.00;;;;;;5011821;28;20045;-84
2021/05/26 14:07:48;;;;;;;1.27;0.50;;;15.70;88.50;;;;;;5000925;28;20045;-84
2021/05/26 14:10:15;;;;;;;1.90;0.75;;;15.50;90.00;;;;;;5012612;28;20416;-84
2021/05/26 14:12:42;;;;;;;1.08;0.55;;;15.60;90.90;;;;;;5014134;28;20046;-85
2021/05/26 14:15:08;;;;;;;1.13;0.50;;;15.80;90.20;;;;;;5004700;28;20033;-84
2021/05/26 14:17:34;;;;;;;0.70;0.45;;;16.00;90.00;;;;;;5014325;28;20065;-85
2021/05/26 14:20:00;;;;;;;0.88;0.50;;;16.20;90.10;;;;;;5005738;28;20136;-84
2021/05/26 14:22:27;;;;;;;0.93;0.47;;;16.30;90.10;;;;;;5007844;28;20192;-86
2021/05/26 14:24:53;;;;;;;1.65;0.55;;;16.40;86.70;;;;;;5005102;28;20038;-87